Reston, Canada
Current Conditions -  °F | °C
As of 10:00 AM on Friday 21 Nov 2014 (Local Time) from CYBR Reporting Station
Broken Clouds Broken Clouds  
Wind Chill: 17°   Ceiling: 24000
Heat Index: 27°   Visibility: 15mi
Dew Point: 19°   Wind: 9mph
Humidity: 74%   Direction: 230°SW
Pressure: 29.55"   Gusts: NA
Location:  49.55°N, 101.08°W
Report Text: CYBR 211600Z 23008KT 15SM SCT160 BKN240 M03/M07 A2955 RMK AC4CI2 SLP033
Loading
Personal Weather Stations






























Interactive Weather Map New forecast layout! Learn more

10-Day Weather Forecast

Advertisements
Track Severe Weather on mobile